createdAt,value
2016-05-12T00:00:06.211Z,16.12
2016-05-12T00:01:06.542Z,16.2
2016-05-12T00:02:06.341Z,16.12
2016-05-12T00:03:06.156Z,16.03
2016-05-12T00:04:06.316Z,16.04
2016-05-12T00:05:06.302Z,16.01
2016-05-12T00:06:06.492Z,15.97
2016-05-12T00:07:06.291Z,16
2016-05-12T00:08:06.279Z,15.93
2016-05-12T00:09:06.454Z,15.93
2016-05-12T00:10:06.096Z,16.01
2016-05-12T00:11:06.241Z,15.96
2016-05-12T00:12:06.227Z,15.92
2016-05-12T00:13:06.215Z,15.94
2016-05-12T00:14:06.202Z,15.88
2016-05-12T00:15:06.188Z,15.92
2016-05-12T00:16:06.613Z,15.88
2016-05-12T00:17:06.178Z,15.75
2016-05-12T00:18:06.149Z,15.81
2016-05-12T00:19:06.012Z,15.78
2016-05-12T00:20:05.984Z,15.76
2016-05-12T00:21:06.126Z,15.75
2016-05-12T00:22:06.114Z,15.74
2016-05-12T00:23:05.975Z,15.72
2016-05-12T00:24:06.088Z,15.64
2016-05-12T00:25:06.091Z,15.68
2016-05-12T00:26:06.078Z,15.74
2016-05-12T00:27:05.908Z,15.67
2016-05-12T00:28:05.895Z,15.67
2016-05-12T00:29:05.882Z,15.7
2016-05-12T00:30:06.025Z,15.6
2016-05-12T00:31:06.013Z,15.68
2016-05-12T00:32:06.000Z,15.63
2016-05-12T00:33:05.987Z,15.67
2016-05-12T00:34:06.005Z,15.6
2016-05-12T00:35:05.961Z,15.64
2016-05-12T00:36:05.964Z,15.64
2016-05-12T00:37:05.950Z,15.57
2016-05-12T00:38:05.938Z,15.57
2016-05-12T00:39:05.925Z,15.64
2016-05-12T00:40:05.928Z,15.49
2016-05-12T00:41:06.102Z,15.61
2016-05-12T00:42:05.902Z,15.51
2016-05-12T00:43:05.888Z,15.49
2016-05-12T00:44:05.876Z,15.54
2016-05-12T00:45:05.862Z,15.51
2016-05-12T00:46:05.974Z,15.49
2016-05-12T00:47:05.838Z,15.51
2016-05-12T00:48:05.824Z,15.45
2016-05-12T00:49:05.812Z,15.43
2016-05-12T00:50:05.657Z,15.57
2016-05-12T00:51:05.629Z,15.43
2016-05-12T00:52:05.787Z,15.57
2016-05-12T00:53:05.775Z,15.56
2016-05-12T00:54:05.762Z,15.56
2016-05-12T00:55:05.749Z,15.48
2016-05-12T00:56:05.736Z,15.46
2016-05-12T00:57:05.583Z,15.46
2016-05-12T00:58:05.711Z,15.48
2016-05-12T00:59:05.714Z,15.43
2016-05-12T01:00:05.700Z,15.48
2016-05-12T01:01:05.686Z,15.45
2016-05-12T01:02:05.878Z,15.28
2016-05-12T01:03:05.662Z,15.38
2016-05-12T01:04:05.664Z,15.36
2016-05-12T01:05:05.479Z,15.36
2016-05-12T01:06:05.638Z,15.33
2016-05-12T01:07:05.469Z,15.33
2016-05-12T01:08:05.613Z,15.31
2016-05-12T01:09:05.444Z,15.3
2016-05-12T01:10:05.571Z,15.21
2016-05-12T01:11:05.574Z,15.24
2016-05-12T01:12:05.560Z,15.28
2016-05-12T01:13:05.547Z,15.23
2016-05-12T01:14:05.535Z,15.27
2016-05-12T01:15:05.538Z,15.2
2016-05-12T01:16:05.541Z,15.23
2016-05-12T01:17:05.496Z,15.15
2016-05-12T01:18:05.482Z,15.13
2016-05-12T01:19:05.329Z,15.12
2016-05-12T01:20:05.473Z,15.17
2016-05-12T01:21:05.459Z,15.12
2016-05-12T01:22:05.463Z,15.17
2016-05-12T01:23:05.293Z,15.09
2016-05-12T01:24:05.421Z,15.15
2016-05-12T01:25:05.409Z,15.19
2016-05-12T01:26:05.395Z,15.13
2016-05-12T01:27:05.429Z,15.21
2016-05-12T01:28:05.228Z,15.13
2016-05-12T01:29:05.356Z,15.11
2016-05-12T01:30:05.187Z,15.17
2016-05-12T01:31:05.190Z,15.15
2016-05-12T01:32:05.177Z,15.17
2016-05-12T01:33:05.320Z,15.15
2016-05-12T01:34:05.307Z,15.21
2016-05-12T01:35:05.294Z,15.23
2016-05-12T01:36:05.281Z,15.23
2016-05-12T01:37:05.284Z,15.3
2016-05-12T01:38:05.100Z,15.26
2016-05-12T01:39:05.258Z,15.24
2016-05-12T01:40:05.245Z,15.31
2016-05-12T01:41:05.232Z,15.35
2016-05-12T01:42:05.220Z,15.31
2016-05-12T01:43:05.207Z,15.27
2016-05-12T01:44:05.193Z,15.3
2016-05-12T01:45:05.180Z,15.35
2016-05-12T01:46:05.183Z,15.3
2016-05-12T01:47:05.155Z,15.36
2016-05-12T01:48:05.141Z,15.35
2016-05-12T01:49:05.144Z,15.3
2016-05-12T01:50:05.132Z,15.24
2016-05-12T01:51:05.118Z,15.35
2016-05-12T01:52:05.106Z,15.23
2016-05-12T01:53:05.093Z,15.19
2016-05-12T01:54:05.079Z,15.23
2016-05-12T01:55:05.082Z,15.23
2016-05-12T01:56:05.070Z,15.28
2016-05-12T01:57:05.057Z,15.3
2016-05-12T01:58:05.028Z,15.35
2016-05-12T01:59:05.015Z,15.35
2016-05-12T02:00:05.003Z,15.3
2016-05-12T02:01:04.989Z,15.31
2016-05-12T02:02:04.975Z,15.23
2016-05-12T02:03:04.978Z,15.28
2016-05-12T02:04:04.810Z,15.19
2016-05-12T02:05:04.953Z,15.28
2016-05-12T02:06:04.939Z,15.24
2016-05-12T02:07:04.942Z,15.28
2016-05-12T02:08:04.914Z,15.23
2016-05-12T02:09:04.902Z,15.26
2016-05-12T02:10:04.747Z,15.26
2016-05-12T02:11:04.891Z,15.11
2016-05-12T02:12:04.878Z,15.13
2016-05-12T02:13:04.849Z,15.17
2016-05-12T02:14:04.696Z,15.23
2016-05-12T02:15:04.839Z,15.11
2016-05-12T02:16:04.810Z,15.15
2016-05-12T02:17:04.830Z,15.15
2016-05-12T02:18:04.801Z,15.09
2016-05-12T02:19:04.803Z,15.09
2016-05-12T02:20:04.775Z,15.01
2016-05-12T02:21:04.762Z,15.05
2016-05-12T02:22:04.765Z,14.99
2016-05-12T02:23:04.735Z,14.94
2016-05-12T02:24:04.582Z,14.98
2016-05-12T02:25:04.710Z,14.9
2016-05-12T02:26:04.698Z,14.95
2016-05-12T02:27:04.700Z,14.94
2016-05-12T02:28:04.531Z,14.81
2016-05-12T02:29:04.658Z,14.84
2016-05-12T02:30:04.661Z,14.75
2016-05-12T02:31:04.648Z,14.8
2016-05-12T02:32:04.635Z,14.75
2016-05-12T02:33:04.638Z,14.68
2016-05-12T02:34:04.750Z,14.65
2016-05-12T02:35:04.502Z,14.69
2016-05-12T02:36:04.443Z,14.67
2016-05-12T02:37:04.586Z,14.69
2016-05-12T02:38:04.572Z,14.67
2016-05-12T02:39:04.561Z,14.52
2016-05-12T02:40:04.547Z,14.52
2016-05-12T02:41:04.581Z,14.57
2016-05-12T02:42:04.522Z,14.56
2016-05-12T02:43:04.539Z,14.64
2016-05-12T02:44:04.511Z,14.6
2016-05-12T02:45:04.482Z,14.52
2016-05-12T02:46:04.485Z,14.49
2016-05-12T02:47:04.457Z,14.47
2016-05-12T02:48:04.444Z,14.52
2016-05-12T02:49:04.430Z,14.52
2016-05-12T02:50:04.465Z,14.52
2016-05-12T02:51:04.499Z,14.53
2016-05-12T02:52:04.408Z,14.6
2016-05-12T02:53:04.395Z,14.53
2016-05-12T02:54:04.366Z,14.56
2016-05-12T02:55:04.353Z,14.5
2016-05-12T02:56:04.356Z,14.49
2016-05-12T02:57:04.186Z,14.43
2016-05-12T02:58:04.329Z,14.43
2016-05-12T02:59:04.318Z,14.54
2016-05-12T03:00:04.304Z,14.44
2016-05-12T03:01:04.338Z,14.5
2016-05-12T03:02:04.325Z,14.52
2016-05-12T03:03:04.265Z,14.52
2016-05-12T03:04:04.267Z,14.46
2016-05-12T03:05:04.256Z,14.5
2016-05-12T03:06:04.117Z,14.47
2016-05-12T03:07:04.229Z,14.49
2016-05-12T03:08:04.216Z,14.52
2016-05-12T03:09:04.031Z,14.52
2016-05-12T03:10:04.191Z,14.5
2016-05-12T03:11:04.178Z,14.53
2016-05-12T03:12:04.008Z,14.54
2016-05-12T03:13:04.167Z,14.53
2016-05-12T03:14:04.139Z,14.54
2016-05-12T03:15:04.125Z,14.47
2016-05-12T03:16:04.113Z,14.5
2016-05-12T03:17:03.990Z,14.5
2016-05-12T03:18:04.088Z,14.53
2016-05-12T03:19:03.933Z,14.54
2016-05-12T03:20:04.061Z,14.5
2016-05-12T03:21:04.064Z,14.49
2016-05-12T03:22:04.066Z,14.54
2016-05-12T03:23:04.021Z,14.5
2016-05-12T03:24:04.009Z,14.38
2016-05-12T03:25:03.996Z,14.42
2016-05-12T03:26:03.827Z,14.5
2016-05-12T03:27:03.986Z,14.39
2016-05-12T03:28:03.957Z,14.37
2016-05-12T03:29:03.945Z,14.28
2016-05-12T03:30:03.947Z,14.31
2016-05-12T03:31:03.778Z,14.38
2016-05-12T03:32:04.125Z,14.31
2016-05-12T03:33:03.909Z,14.29
2016-05-12T03:34:03.895Z,14.21
2016-05-12T03:35:03.883Z,14.21
2016-05-12T03:36:03.869Z,14.2
2016-05-12T03:37:03.856Z,14.27
2016-05-12T03:38:03.687Z,14.29
2016-05-12T03:39:03.831Z,14.2
2016-05-12T03:40:03.818Z,14.31
2016-05-12T03:41:03.805Z,14.32
2016-05-12T03:42:03.791Z,14.35
2016-05-12T03:43:03.622Z,14.39
2016-05-12T03:44:03.985Z,14.38
2016-05-12T03:45:03.753Z,14.42
2016-05-12T03:46:03.755Z,14.32
2016-05-12T03:47:03.586Z,14.47
2016-05-12T03:48:03.714Z,14.43
2016-05-12T03:49:03.717Z,14.44
2016-05-12T03:50:03.563Z,14.5
2016-05-12T03:51:03.691Z,14.43
2016-05-12T03:52:03.522Z,14.46
2016-05-12T03:53:03.666Z,14.44
2016-05-12T03:54:03.652Z,14.46
2016-05-12T03:55:03.640Z,14.43
2016-05-12T03:56:03.626Z,14.35
2016-05-12T03:57:03.613Z,14.44
2016-05-12T03:58:03.616Z,14.34
2016-05-12T03:59:03.604Z,14.37
2016-05-12T04:00:03.576Z,14.37
2016-05-12T04:01:03.562Z,14.35
2016-05-12T04:02:03.565Z,14.28
2016-05-12T04:03:03.536Z,14.37
2016-05-12T04:04:03.523Z,14.31
2016-05-12T04:05:03.510Z,14.32
2016-05-12T04:06:03.498Z,14.34
2016-05-12T04:07:03.328Z,14.32
2016-05-12T04:08:03.472Z,14.38
2016-05-12T04:09:03.458Z,14.38
2016-05-12T04:10:03.445Z,14.37
2016-05-12T04:11:03.433Z,14.31
2016-05-12T04:12:03.420Z,14.35
2016-05-12T04:13:03.422Z,14.38
2016-05-12T04:14:03.394Z,14.29
2016-05-12T04:15:03.240Z,14.31
2016-05-12T04:16:03.383Z,14.35
2016-05-12T04:17:03.371Z,14.31
2016-05-12T04:18:03.357Z,14.35
2016-05-12T04:19:03.345Z,14.38
2016-05-12T04:20:03.347Z,14.39
2016-05-12T04:21:03.319Z,14.38
2016-05-12T04:22:03.305Z,14.43
2016-05-12T04:23:03.308Z,14.46
2016-05-12T04:24:03.279Z,14.44
2016-05-12T04:25:03.267Z,14.39
2016-05-12T04:26:03.254Z,14.46
2016-05-12T04:27:03.273Z,14.47
2016-05-12T04:28:03.243Z,14.52
2016-05-12T04:29:03.231Z,14.49
2016-05-12T04:30:03.218Z,14.5
2016-05-12T04:31:03.205Z,14.54
2016-05-12T04:32:03.395Z,14.53
2016-05-12T04:33:03.164Z,14.62
2016-05-12T04:34:03.167Z,14.6
2016-05-12T04:35:03.153Z,14.6
2016-05-12T04:36:03.156Z,14.67
2016-05-12T04:37:03.330Z,14.65
2016-05-12T04:38:03.115Z,14.67
2016-05-12T04:39:02.946Z,14.78
2016-05-12T04:40:03.089Z,14.75
2016-05-12T04:41:03.278Z,14.78
2016-05-12T04:42:02.922Z,14.8
2016-05-12T04:43:03.049Z,14.78
2016-05-12T04:44:02.912Z,14.78
2016-05-12T04:45:03.025Z,14.87
2016-05-12T04:46:02.855Z,14.81
2016-05-12T04:47:03.311Z,14.84
2016-05-12T04:48:02.985Z,14.81
2016-05-12T04:49:02.972Z,14.9
2016-05-12T04:50:02.959Z,14.87
2016-05-12T04:51:02.963Z,14.98
2016-05-12T04:52:02.933Z,15.01
2016-05-12T04:53:02.764Z,15.02
2016-05-12T04:54:02.907Z,14.95
2016-05-12T04:55:02.910Z,14.98
2016-05-12T04:56:02.976Z,15.05
2016-05-12T04:57:02.900Z,15.09
2016-05-12T04:58:02.871Z,15.06
2016-05-12T04:59:02.859Z,15.12
2016-05-12T05:00:02.862Z,15.12
2016-05-12T05:01:02.676Z,15.11
2016-05-12T05:02:02.679Z,15.17
2016-05-12T05:03:02.806Z,15.23
2016-05-12T05:04:02.638Z,15.2
2016-05-12T05:05:02.640Z,15.27
2016-05-12T05:06:02.612Z,15.26
2016-05-12T05:07:02.756Z,15.3
2016-05-12T05:08:02.742Z,15.27
2016-05-12T05:09:02.729Z,15.35
2016-05-12T05:10:02.731Z,15.33
2016-05-12T05:11:02.703Z,15.35
2016-05-12T05:12:05.534Z,15.39
2016-05-12T05:13:02.693Z,15.42
2016-05-12T05:14:02.508Z,15.36
2016-05-12T05:15:02.652Z,15.45
2016-05-12T05:16:02.654Z,15.42
2016-05-12T05:17:02.360Z,15.51
2016-05-12T05:18:02.628Z,15.54
2016-05-12T05:19:02.616Z,15.52
2016-05-12T05:20:02.618Z,15.54
2016-05-12T05:21:02.277Z,15.52
2016-05-12T05:22:02.577Z,15.54
2016-05-12T05:23:02.579Z,15.6
2016-05-12T05:24:02.427Z,15.6
2016-05-12T05:25:02.554Z,15.6
2016-05-12T05:26:02.541Z,15.6
2016-05-12T05:27:02.527Z,15.67
2016-05-12T05:28:02.499Z,15.66
2016-05-12T05:29:02.501Z,15.67
2016-05-12T05:30:02.488Z,15.72
2016-05-12T05:31:02.476Z,15.7
2016-05-12T05:32:02.213Z,15.74
2016-05-12T05:33:02.450Z,15.84
2016-05-12T05:34:02.281Z,15.79
2016-05-12T05:35:02.268Z,15.85
2016-05-12T05:36:02.411Z,15.79
2016-05-12T05:37:02.257Z,15.88
2016-05-12T05:38:02.244Z,15.81
2016-05-12T05:39:02.373Z,15.82
2016-05-12T05:40:02.360Z,15.88
2016-05-12T05:41:02.362Z,15.92
2016-05-12T05:42:02.350Z,15.93
2016-05-12T05:43:02.336Z,16
2016-05-12T05:44:02.166Z,15.99
2016-05-12T05:45:02.311Z,16.01
2016-05-12T05:46:02.313Z,16.01
2016-05-12T05:47:02.144Z,16.07
2016-05-12T05:48:02.287Z,16.11
2016-05-12T05:49:02.118Z,16.12
2016-05-12T05:50:02.261Z,16.11
2016-05-12T05:51:02.249Z,16.15
2016-05-12T05:52:02.235Z,16.27
2016-05-12T05:53:02.066Z,16.35
2016-05-12T05:54:02.209Z,16.26
2016-05-12T05:55:02.196Z,16.34
2016-05-12T05:56:02.200Z,16.41
2016-05-12T05:57:02.171Z,16.37
2016-05-12T05:58:02.173Z,16.34
2016-05-12T05:59:02.160Z,16.48
2016-05-12T06:00:01.991Z,16.45
2016-05-12T06:01:02.135Z,16.52
2016-05-12T06:02:02.965Z,16.63
2016-05-12T06:03:02.124Z,16.59
2016-05-12T06:04:01.940Z,16.59
2016-05-12T06:05:02.099Z,16.7
2016-05-12T06:06:02.070Z,16.7
2016-05-12T06:07:02.073Z,16.7
2016-05-12T06:08:02.059Z,16.75
2016-05-12T06:09:01.890Z,16.81
2016-05-12T06:10:02.033Z,16.75
2016-05-12T06:11:01.865Z,16.78
2016-05-12T06:12:02.023Z,16.81
2016-05-12T06:13:01.995Z,16.85
2016-05-12T06:14:01.841Z,16.86
2016-05-12T06:15:01.984Z,16.93
2016-05-12T06:16:01.972Z,16.86
2016-05-12T06:17:01.959Z,16.88
2016-05-12T06:18:01.946Z,16.96
2016-05-12T06:19:01.933Z,16.93
2016-05-12T06:20:01.936Z,16.96
2016-05-12T06:21:01.922Z,16.99
2016-05-12T06:22:01.910Z,17.03
2016-05-12T06:23:01.928Z,17.08
2016-05-12T06:24:01.883Z,17.1
2016-05-12T06:25:01.730Z,17.17
2016-05-12T06:26:01.702Z,17.22
2016-05-12T06:27:01.846Z,17.26
2016-05-12T06:28:01.848Z,17.28
2016-05-12T06:29:01.835Z,17.38
2016-05-12T06:30:01.822Z,17.41
2016-05-12T06:31:01.824Z,17.51
2016-05-12T06:32:02.171Z,17.53
2016-05-12T06:33:01.798Z,17.5
2016-05-12T06:34:01.771Z,17.54
2016-05-12T06:35:01.632Z,17.53
2016-05-12T06:36:01.759Z,17.55
2016-05-12T06:37:01.748Z,17.64
2016-05-12T06:38:01.734Z,17.71
2016-05-12T06:39:01.737Z,17.66
2016-05-12T06:40:01.568Z,17.7
2016-05-12T06:41:01.759Z,17.81
2016-05-12T06:42:01.698Z,17.84
2016-05-12T06:43:01.701Z,17.92
2016-05-12T06:44:01.687Z,17.88
2016-05-12T06:45:01.675Z,17.97
2016-05-12T06:46:01.662Z,18.03
2016-05-12T06:47:01.649Z,18.12
2016-05-12T06:48:01.636Z,18.17
2016-05-12T06:49:01.325Z,18.13
2016-05-12T06:50:01.668Z,18.17
2016-05-12T06:51:01.699Z,18.21
2016-05-12T06:52:01.728Z,18.22
2016-05-12T06:53:01.758Z,18.33
2016-05-12T06:54:01.648Z,18.36
2016-05-12T06:55:01.807Z,18.37
2016-05-12T06:56:01.810Z,18.42
2016-05-12T06:57:01.827Z,18.44
2016-05-12T06:58:01.830Z,18.54
2016-05-12T06:59:01.832Z,18.54
2016-05-12T07:00:01.824Z,18.52
2016-05-12T07:01:01.818Z,18.5
2016-05-12T07:02:02.059Z,18.62
2016-05-12T07:03:01.802Z,18.64
2016-05-12T07:04:01.653Z,18.79
2016-05-12T07:05:01.799Z,18.72
2016-05-12T07:06:01.788Z,18.74
2016-05-12T07:07:01.778Z,18.82
2016-05-12T07:08:01.782Z,18.82
2016-05-12T07:09:01.771Z,18.9
2016-05-12T07:10:01.759Z,18.94
2016-05-12T07:11:01.590Z,18.82
2016-05-12T07:12:01.734Z,18.97
2016-05-12T07:13:01.737Z,19.05
2016-05-12T07:14:01.725Z,19.06
2016-05-12T07:15:01.713Z,19.1
2016-05-12T07:16:01.700Z,19.17
2016-05-12T07:17:02.109Z,19.33
2016-05-12T07:18:01.691Z,19.29
2016-05-12T07:19:01.694Z,19.38
2016-05-12T07:20:01.665Z,19.4
2016-05-12T07:21:01.667Z,19.47
2016-05-12T07:22:01.498Z,19.55
2016-05-12T07:23:01.642Z,19.58
2016-05-12T07:24:01.629Z,19.58
2016-05-12T07:25:01.476Z,19.68
2016-05-12T07:26:01.478Z,19.84
2016-05-12T07:27:01.605Z,19.79
2016-05-12T07:28:01.594Z,20.27
2016-05-12T07:29:01.596Z,21.53
2016-05-12T07:30:01.583Z,22.83
2016-05-12T07:31:01.570Z,23.67
2016-05-12T07:32:01.588Z,24.45
2016-05-12T07:33:01.575Z,24.97
2016-05-12T07:34:01.563Z,25.46
2016-05-12T07:35:01.393Z,25.97
2016-05-12T07:36:01.552Z,26.37
2016-05-12T07:37:01.539Z,26.64
2016-05-12T07:38:01.385Z,26.87
2016-05-12T07:39:01.544Z,27.16
2016-05-12T07:40:01.547Z,27.5
2016-05-12T07:41:01.519Z,27.71
2016-05-12T07:42:01.521Z,27.74
2016-05-12T07:43:01.524Z,27.77
2016-05-12T07:44:01.511Z,28.01
2016-05-12T07:45:01.358Z,28.04
2016-05-12T07:46:01.517Z,28.21
2016-05-12T07:47:01.504Z,28.33
2016-05-12T07:48:01.506Z,28.62
2016-05-12T07:49:01.509Z,28.7
2016-05-12T07:50:01.340Z,28.73
2016-05-12T07:51:01.358Z,28.96
2016-05-12T07:52:01.346Z,29.11
2016-05-12T07:53:01.504Z,28.68
2016-05-12T07:54:01.507Z,28.85
2016-05-12T07:55:01.494Z,28.72
2016-05-12T07:56:01.340Z,28.87
2016-05-12T07:57:01.500Z,29.08
2016-05-12T07:58:01.502Z,29.11
2016-05-12T07:59:01.489Z,29.11
2016-05-12T08:00:01.491Z,29.2
2016-05-12T08:01:01.510Z,29.15
2016-05-12T08:02:01.513Z,29.23
2016-05-12T08:03:01.484Z,29.31
2016-05-12T08:04:01.486Z,29.31
2016-05-12T08:05:01.489Z,29
2016-05-12T08:06:01.492Z,28.9
2016-05-12T08:07:01.495Z,29
2016-05-12T08:08:01.357Z,28.88
2016-05-12T08:09:01.515Z,28.69
2016-05-12T08:10:01.503Z,28.9
2016-05-12T08:11:01.491Z,29.13
2016-05-12T08:12:01.337Z,29.37
2016-05-12T08:13:01.480Z,29.56
2016-05-12T08:14:01.482Z,29.65
2016-05-12T08:15:01.485Z,29.82
2016-05-12T08:16:01.488Z,29.66
2016-05-12T08:17:01.725Z,29.15
2016-05-12T08:18:01.338Z,29.43
2016-05-12T08:19:01.340Z,29.68
2016-05-12T08:20:01.342Z,29.82
2016-05-12T08:21:01.502Z,29.56
2016-05-12T08:22:01.504Z,29.34
2016-05-12T08:23:01.506Z,29.34
2016-05-12T08:24:01.509Z,29.38
2016-05-12T08:25:01.512Z,29.59
2016-05-12T08:26:01.342Z,29.68
2016-05-12T08:27:01.361Z,29.97
2016-05-12T08:28:01.505Z,30.19
2016-05-12T08:29:01.507Z,30.29
2016-05-12T08:30:01.353Z,30.49
2016-05-12T08:31:02.559Z,30.61
2016-05-12T08:32:01.641Z,30.53
2016-05-12T08:33:01.378Z,30.3
2016-05-12T08:34:01.522Z,30.62
2016-05-12T08:35:01.524Z,30.72
2016-05-12T08:36:01.402Z,30.98
2016-05-12T08:37:01.544Z,31.06
2016-05-12T08:38:01.547Z,31.13
2016-05-12T08:39:01.535Z,31.09
2016-05-12T08:40:01.380Z,31.17
2016-05-12T08:41:01.758Z,31.38
2016-05-12T08:42:01.542Z,31.26
2016-05-12T08:43:01.545Z,30.26
2016-05-12T08:44:01.391Z,30.23
2016-05-12T08:45:01.551Z,30.29
2016-05-12T08:46:01.537Z,30.87
2016-05-12T08:47:01.806Z,31.08
2016-05-12T08:48:01.543Z,31.38
2016-05-12T08:49:01.561Z,31.36
2016-05-12T08:50:01.251Z,31.57
2016-05-12T08:51:01.567Z,31.18
2016-05-12T08:52:01.569Z,30.78
2016-05-12T08:53:01.572Z,30.94
2016-05-12T08:54:01.575Z,30.98
2016-05-12T08:55:01.561Z,30.11
2016-05-12T08:56:01.565Z,29.56
2016-05-12T08:57:01.567Z,29.13
2016-05-12T08:58:01.585Z,28.7
2016-05-12T08:59:01.573Z,28.73
2016-05-12T09:00:01.575Z,28.7
2016-05-12T09:01:01.577Z,28.72
2016-05-12T09:02:01.925Z,28.51
2016-05-12T09:03:01.427Z,28.33
2016-05-12T09:04:01.586Z,28.33
2016-05-12T09:05:01.572Z,28.38
2016-05-12T09:06:01.435Z,28.43
2016-05-12T09:07:01.578Z,28.22
2016-05-12T09:08:01.596Z,28.25
2016-05-12T09:09:01.740Z,27.79
2016-05-12T09:10:01.602Z,27.24
2016-05-12T09:11:01.574Z,27.11
2016-05-12T09:12:01.591Z,26.83
2016-05-12T09:13:01.422Z,26.84
2016-05-12T09:14:01.596Z,26.87
2016-05-12T09:15:01.585Z,26.79
2016-05-12T09:16:01.587Z,26.69
2016-05-12T09:17:02.090Z,26.59
2016-05-12T09:18:01.421Z,26.58
2016-05-12T09:19:01.579Z,26.46
2016-05-12T09:20:01.566Z,26.43
2016-05-12T09:21:01.585Z,26.25
2016-05-12T09:22:01.587Z,26.39
2016-05-12T09:23:01.574Z,26.49
2016-05-12T09:24:01.576Z,26.32
2016-05-12T09:25:01.579Z,26.36
2016-05-12T09:26:03.348Z,26.35
2016-05-12T09:27:01.553Z,26.31
2016-05-12T09:28:01.572Z,26.37
2016-05-12T09:29:01.403Z,26.32
2016-05-12T09:30:01.578Z,25.98
2016-05-12T09:31:01.252Z,25.93
2016-05-12T09:32:02.161Z,25.97
2016-05-12T09:33:01.555Z,25.79
2016-05-12T09:34:01.557Z,25.64
2016-05-12T09:35:01.544Z,25.47
2016-05-12T09:36:03.688Z,25.75
2016-05-12T09:37:01.691Z,25.61
2016-05-12T09:38:01.568Z,25.5
2016-05-12T09:39:01.383Z,25.28
2016-05-12T09:40:01.542Z,25.34
2016-05-12T09:41:01.544Z,25.32
2016-05-12T09:42:01.532Z,25.32
2016-05-12T09:43:01.534Z,25.53
2016-05-12T09:44:01.380Z,25.54
2016-05-12T09:45:01.524Z,25.72
2016-05-12T09:46:02.526Z,25.57
2016-05-12T09:47:01.530Z,25.59
2016-05-12T09:48:01.516Z,25.79
2016-05-12T09:49:01.363Z,25.94
2016-05-12T09:50:01.522Z,25.91
2016-05-12T09:51:01.509Z,25.57
2016-05-12T09:52:01.356Z,25.61
2016-05-12T09:53:01.358Z,25.49
2016-05-12T09:54:01.501Z,25.49
2016-05-12T09:55:04.379Z,25.43
2016-05-12T09:56:01.351Z,25.5
2016-05-12T09:57:01.509Z,25.53
2016-05-12T09:58:01.184Z,25.59
2016-05-12T09:59:01.483Z,25.5
2016-05-12T10:00:01.330Z,25.42
2016-05-12T10:01:01.473Z,25.49
2016-05-12T10:02:01.507Z,25.42
2016-05-12T10:03:01.464Z,25.52
2016-05-12T10:04:01.467Z,25.65
2016-05-12T10:05:01.453Z,25.59
2016-05-12T10:06:01.472Z,25.64
2016-05-12T10:07:01.458Z,25.38
2016-05-12T10:08:01.305Z,25.34
2016-05-12T10:09:01.448Z,25.44
2016-05-12T10:10:01.294Z,25.35
2016-05-12T10:11:01.453Z,25.5
2016-05-12T10:12:01.440Z,25.5
2016-05-12T10:13:01.443Z,25.53
2016-05-12T10:14:01.430Z,25.52
2016-05-12T10:15:01.417Z,25.61
2016-05-12T10:16:01.263Z,25.71
2016-05-12T10:17:01.860Z,25.67
2016-05-12T10:18:01.269Z,25.83
2016-05-12T10:19:01.429Z,26.06
2016-05-12T10:20:01.415Z,26.29
2016-05-12T10:21:01.418Z,26.24
2016-05-12T10:22:01.420Z,26.35
2016-05-12T10:23:01.408Z,26.32
2016-05-12T10:24:01.410Z,26.42
2016-05-12T10:25:01.429Z,26.62
2016-05-12T10:26:01.415Z,26.77
2016-05-12T10:27:01.403Z,27.1
2016-05-12T10:28:01.406Z,26.83
2016-05-12T10:29:01.251Z,27.1
2016-05-12T10:30:01.411Z,27.67
2016-05-12T10:31:01.413Z,27.85
2016-05-12T10:32:01.994Z,28.26
2016-05-12T10:33:01.420Z,27.94
2016-05-12T10:34:01.421Z,28.07
2016-05-12T10:35:01.408Z,28.41
2016-05-12T10:36:01.427Z,28.69
2016-05-12T10:37:01.430Z,29.04
2016-05-12T10:38:01.417Z,29.2
2016-05-12T10:39:01.263Z,29.08
2016-05-12T10:40:01.422Z,29.11
2016-05-12T10:41:02.033Z,29.26
2016-05-12T10:42:01.427Z,29.08
2016-05-12T10:43:01.430Z,29.11
2016-05-12T10:44:01.433Z,28.48
2016-05-12T10:45:01.279Z,28.84
2016-05-12T10:46:01.454Z,29.31
2016-05-12T10:47:01.457Z,29.44
2016-05-12T10:48:01.475Z,29.55
2016-05-12T10:49:01.446Z,29.74
2016-05-12T10:50:01.448Z,29.57
2016-05-12T10:51:01.296Z,29.66
2016-05-12T10:52:01.314Z,29.35
2016-05-12T10:53:01.488Z,29.56
2016-05-12T10:54:01.476Z,29.72
2016-05-12T10:55:01.321Z,29.84
2016-05-12T10:56:01.496Z,29.79
2016-05-12T10:57:01.484Z,29.84
2016-05-12T10:58:01.487Z,29.47
2016-05-12T10:59:01.489Z,29.84
2016-05-12T11:00:01.491Z,29.97
2016-05-12T11:01:01.494Z,30.29
2016-05-12T11:02:01.529Z,30.19
2016-05-12T11:03:01.499Z,30.24
2016-05-12T11:04:01.377Z,30.31
2016-05-12T11:05:01.505Z,30.36
2016-05-12T11:06:01.523Z,30.74
2016-05-12T11:07:01.526Z,31.23
2016-05-12T11:08:01.514Z,31.23
2016-05-12T11:09:01.530Z,31.55
2016-05-12T11:10:01.519Z,31.58
2016-05-12T11:11:01.537Z,31.23
2016-05-12T11:12:01.539Z,31.13
2016-05-12T11:13:01.542Z,31.43
2016-05-12T11:14:01.560Z,31.42
2016-05-12T11:15:01.563Z,30.99
2016-05-12T11:16:01.550Z,30.71
2016-05-12T11:17:01.412Z,30.46
2016-05-12T11:18:01.571Z,30
2016-05-12T11:19:01.402Z,30
2016-05-12T11:20:01.560Z,29.94
2016-05-12T11:21:01.563Z,29.59
2016-05-12T11:22:01.582Z,29.7
2016-05-12T11:23:01.584Z,29.87
2016-05-12T11:24:01.587Z,30
2016-05-12T11:25:01.590Z,30.37
2016-05-12T11:26:01.593Z,30.31
2016-05-12T11:27:01.611Z,30.3
2016-05-12T11:28:01.598Z,30.56
2016-05-12T11:29:01.601Z,30.38
2016-05-12T11:30:01.620Z,30.09
2016-05-12T11:31:01.606Z,30
2016-05-12T11:32:01.780Z,29.35
2016-05-12T11:33:01.612Z,29.6
2016-05-12T11:34:01.614Z,29.96
2016-05-12T11:35:01.616Z,30.18
2016-05-12T11:36:01.682Z,30.19
2016-05-12T11:37:01.622Z,30.29
2016-05-12T11:38:01.641Z,30.45
2016-05-12T11:39:01.471Z,30.75
2016-05-12T11:40:01.631Z,30.61
2016-05-12T11:41:01.492Z,29.94
2016-05-12T11:42:01.651Z,29.49
2016-05-12T11:43:01.655Z,29.23
2016-05-12T11:44:01.500Z,29.08
2016-05-12T11:45:01.660Z,28.88
2016-05-12T11:46:01.647Z,28.68
2016-05-12T11:47:01.774Z,29.07
2016-05-12T11:48:01.652Z,29.1
2016-05-12T11:49:01.654Z,29.19
2016-05-12T11:50:01.502Z,29.37
2016-05-12T11:51:01.676Z,29.15
2016-05-12T11:52:01.662Z,29.47
2016-05-12T11:53:01.681Z,29.82
2016-05-12T11:54:01.684Z,29.75
2016-05-12T11:55:01.671Z,29.97
2016-05-12T11:56:01.673Z,30.12
2016-05-12T11:57:01.692Z,30.3
2016-05-12T11:58:01.726Z,30.62
2016-05-12T11:59:01.681Z,30.81
2016-05-12T12:00:01.700Z,31.12
2016-05-12T12:01:01.546Z,30.98
2016-05-12T12:02:02.456Z,30.59
2016-05-12T12:03:01.740Z,29.96
2016-05-12T12:04:01.711Z,29.56
2016-05-12T12:05:01.713Z,29.4
2016-05-12T12:06:01.716Z,29.62
2016-05-12T12:07:01.719Z,29.5
2016-05-12T12:08:01.564Z,29.74
2016-05-12T12:09:01.725Z,29.82
2016-05-12T12:10:01.570Z,29.9
2016-05-12T12:11:01.932Z,30.23
2016-05-12T12:12:01.732Z,30.64
2016-05-12T12:13:01.766Z,31.09
2016-05-12T12:14:01.737Z,31.18
2016-05-12T12:15:01.583Z,31.35
2016-05-12T12:16:01.758Z,31.31
2016-05-12T12:17:01.589Z,31.43
2016-05-12T12:18:01.608Z,31.73
2016-05-12T12:19:01.751Z,31.82
2016-05-12T12:20:01.769Z,31.85
2016-05-12T12:21:01.756Z,31.68
2016-05-12T12:22:01.775Z,31.23
2016-05-12T12:23:01.777Z,31.01
2016-05-12T12:24:01.796Z,31.12
2016-05-12T12:25:01.782Z,31.26
2016-05-12T12:26:01.785Z,31.31
2016-05-12T12:27:01.851Z,31.49
2016-05-12T12:28:01.821Z,31.73
2016-05-12T12:29:01.809Z,31.85
2016-05-12T12:30:01.811Z,32.03
2016-05-12T12:31:01.814Z,31.98
2016-05-12T12:32:01.927Z,31.88
2016-05-12T12:33:01.664Z,31.96
2016-05-12T12:34:01.666Z,32.25
2016-05-12T12:35:01.825Z,32.47
2016-05-12T12:36:01.672Z,32.33
2016-05-12T12:37:01.518Z,32.29
2016-05-12T12:38:01.678Z,32.35
2016-05-12T12:39:01.867Z,32.58
2016-05-12T12:40:01.839Z,32.69
2016-05-12T12:41:02.076Z,32.79
2016-05-12T12:42:01.859Z,32.93
2016-05-12T12:43:01.706Z,32.95
2016-05-12T12:44:01.708Z,33.04
2016-05-12T12:45:01.867Z,32.52
2016-05-12T12:46:01.870Z,32.67
2016-05-12T12:47:01.919Z,32.88
2016-05-12T12:48:01.875Z,32.36
2016-05-12T12:49:01.893Z,31.62
2016-05-12T12:50:01.897Z,31.76
2016-05-12T12:51:01.899Z,31.85
2016-05-12T12:52:01.886Z,31.58
2016-05-12T12:53:01.749Z,31.18
2016-05-12T12:54:01.907Z,30.86
2016-05-12T12:55:01.910Z,30.27